No particular awareness of the weather is required.    There are no Weather-warnings


Meteo18 Weather Cam more information Meteo18 Weather Cam


Thunder radar more information blitzortung!


Rain radar more information rain snow radar


Visit our other weather sites:

Template documentation
and downloads

And another site



Weather Underground History page Text

Daily Summary for June 9, 2017 Units:  English    Metric   Both
« Previous Day
Next Day »
Daily Weekly Monthly Yearly Custom
  High: Low: Average:
Temperature: 72.7 °F 59.2 °F 66.4 °F
Dew Point: 61.3 °F 54.7 °F 57.7 °F
Humidity: 95 % 56 % 75 %
Wind Speed: 15 mph 0 mph 3.7 mph
Wind Gust: 35 mph - -
Wind:- - WSW
Pressure: 30.1 in 29.9 in -
Precipitation: 0.02 in    
Historical Graphs
 
 
Tabular Data for June 9, 2017
Time Temperature Dew Point Pressure Wind Wind Speed Wind Gust Humidity Rainfall Rate (Hourly)
00:02 65.5 °F 57.4 °F 29.9 in Calm   1 mph 75 % 0 in
00:12 65.5 °F 57 °F 29.9 in Calm   1 mph 74 % 0 in
00:17 65.1 °F 57.4 °F 29.9 in Calm   1 mph 76 % 0 in
00:22 64.6 °F 57.2 °F 29.9 in Calm   1 mph 77 % 0 in
00:32 63.9 °F 57.2 °F 29.9 in Calm   1 mph 79 % 0 in
00:42 63.7 °F 57 °F 29.9 in WNW 1 mph 1 mph 79 % 0 in
00:47 63.9 °F 56.8 °F 29.9 in Calm   1 mph 78 % 0 in
00:52 64.6 °F 56.8 °F 29.9 in Calm   1 mph 76 % 0 in
00:57 64.9 °F 56.5 °F 29.9 in Calm   1 mph 74 % 0 in
01:02 65.3 °F 56.5 °F 29.9 in Calm   1 mph 73 % 0 in
01:07 65.5 °F 56.7 °F 29.9 in Calm   1 mph 73 % 0 in
01:12 65.5 °F 57 °F 29.9 in Calm   1 mph 74 % 0 in
01:17 64.9 °F 56.5 °F 29.9 in WSW 1 mph 1 mph 74 % 0 in
01:22 64.9 °F 56.5 °F 29.9 in Calm   1 mph 74 % 0 in
01:27 65.1 °F 56.7 °F 29.9 in West 1 mph 2 mph 74 % 0 in
01:32 64.9 °F 56.5 °F 29.9 in Calm   2 mph 74 % 0 in
01:37 65.1 °F 56.3 °F 29.9 in Calm   2 mph 73 % 0 in
01:42 65.5 °F 56.3 °F 29.9 in Calm   4 mph 72 % 0 in
01:47 65.5 °F 56.3 °F 29.9 in Calm   4 mph 72 % 0 in
01:57 65.5 °F 56.7 °F 29.9 in SW 1 mph 2 mph 73 % 0 in
02:02 65.5 °F 56.7 °F 29.9 in ESE 1 mph 2 mph 73 % 0 in
02:07 65.1 °F 56.7 °F 29.9 in Calm   2 mph 74 % 0 in
02:12 64.6 °F 56.8 °F 29.9 in Calm   2 mph 76 % 0 in
02:17 64 °F 57 °F 29.9 in Calm   2 mph 78 % 0 in
02:22 64.4 °F 56.7 °F 29.9 in SW 4 mph 4 mph 76 % 0 in
02:27 66.2 °F 56.8 °F 29.9 in SSW 6 mph 10 mph 72 % 0 in
02:32 67.1 °F 57.4 °F 29.9 in WSW 9 mph 18 mph 71 % 0 in
02:37 67.5 °F 57.7 °F 29.9 in SW 11 mph 18 mph 71 % 0 in
02:47 67.8 °F 58.1 °F 29.9 in WSW 14 mph 20 mph 71 % 0 in
02:52 68.4 °F 58.3 °F 29.9 in SW 12 mph 17 mph 70 % 0 in
02:57 68.5 °F 58.3 °F 29.9 in SSW 9 mph 18 mph 70 % 0 in
03:02 68.7 °F 58.5 °F 29.9 in West 10 mph 18 mph 70 % 0 in
03:12 68.7 °F 59.4 °F 29.9 in WSW 7 mph 17 mph 72 % 0 in
03:22 66.9 °F 57.9 °F 29.9 in NW 10 mph 28 mph 73 % 0 in
03:32 65.1 °F 57.7 °F 29.9 in NNW 5 mph 35 mph 77 % 0 in
03:37 64.6 °F 57.6 °F 29.9 in WNW 6 mph 22 mph 78 % 0 in
03:42 64 °F 57.4 °F 29.9 in ENE 5 mph 22 mph 79 % 0 in
03:47 63.7 °F 57.7 °F 29.9 in NNW 9 mph 19 mph 81 % 0 in
03:52 63.5 °F 57.6 °F 29.9 in WSW 5 mph 19 mph 81 % 0 in
03:57 63.3 °F 57.7 °F 29.9 in West 2 mph 16 mph 82 % 0 in
04:02 63.1 °F 57.9 °F 29.9 in WNW 4 mph 14 mph 83 % 0 in
04:07 63.1 °F 57.9 °F 29.9 in WNW 3 mph 13 mph 83 % 0 in
04:12 63 °F 57.7 °F 29.9 in WNW 3 mph 12 mph 83 % 0 in
04:17 62.8 °F 57.6 °F 29.9 in NW 4 mph 10 mph 83 % 0 in
04:22 62.8 °F 57.9 °F 29.9 in NNW 2 mph 5 mph 84 % 0 in
04:27 62.6 °F 57.7 °F 29.9 in NW 1 mph 5 mph 84 % 0 in
04:32 62.4 °F 57.6 °F 29.9 in Calm   5 mph 84 % 0 in
04:37 62.4 °F 57.9 °F 29.9 in North 1 mph 5 mph 85 % 0 in
04:42 62.2 °F 57.7 °F 29.9 in NNE 1 mph 4 mph 85 % 0 in
04:47 62.1 °F 57.6 °F 29.9 in NE 1 mph 3 mph 85 % 0 in
04:52 62.1 °F 57.6 °F 29.9 in Calm   3 mph 85 % 0 in
04:57 62.1 °F 57.7 °F 29.9 in Calm   3 mph 86 % 0 in
05:02 61.9 °F 57.6 °F 29.9 in Calm   2 mph 86 % 0 in
05:07 61.7 °F 57.7 °F 29.9 in Calm   1 mph 87 % 0 in
05:12 61.5 °F 57.6 °F 29.9 in Calm   1 mph 87 % 0 in
05:22 61.2 °F 58.3 °F 29.9 in SW 2 mph 5 mph 90 % 0.01 in
05:32 60.6 °F 57.9 °F 29.9 in SW 2 mph 4 mph 91 % 0.02 in
05:37 60.4 °F 57.7 °F 30 in SSW 2 mph 4 mph 91 % 0.02 in
05:42 60.4 °F 58.1 °F 30 in Calm   4 mph 92 % 0.02 in
05:47 60.3 °F 57.9 °F 30 in Calm   4 mph 92 % 0.02 in
05:52 60.3 °F 57.9 °F 30 in Calm   3 mph 92 % 0.02 in
06:02 60.1 °F 58.1 °F 30 in Calm   1 mph 93 % 0.02 in
06:07 60.1 °F 58.1 °F 30 in Calm   1 mph 93 % 0.02 in
06:12 60.1 °F 58.1 °F 30 in Calm     93 % 0.02 in
06:17 60.1 °F 58.1 °F 30 in WNW 1 mph   93 % 0.02 in
06:22 59.9 °F 57.9 °F 30 in Calm     93 % 0.02 in
06:27 59.7 °F 57.7 °F 30 in Calm   1 mph 93 % 0.01 in
06:32 59.7 °F 57.7 °F 30 in Calm   1 mph 93 % 0.01 in
06:37 59.7 °F 57.9 °F 30 in WSW 2 mph 2 mph 94 % 0.01 in
06:42 59.9 °F 58.1 °F 30 in WSW 1 mph 3 mph 94 % 0.01 in
06:47 59.9 °F 58.1 °F 30 in WSW 2 mph 3 mph 94 % 0.01 in
06:52 59.7 °F 57.9 °F 30 in WSW 1 mph 3 mph 94 % 0 in
06:57 59.7 °F 57.9 °F 30 in Calm   4 mph 94 % 0 in
07:02 59.7 °F 57.9 °F 30 in SSW 1 mph 4 mph 94 % 0 in
07:12 59.5 °F 57.7 °F 30 in SSW 1 mph 3 mph 94 % 0 in
07:17 59.4 °F 57.6 °F 30 in Calm   3 mph 94 % 0 in
07:22 59.4 °F 57.6 °F 30 in Calm   3 mph 94 % 0 in
07:32 59.2 °F 57.7 °F 30 in South 2 mph 3 mph 95 % 0 in
07:37 59.2 °F 57.7 °F 30 in SW 1 mph 3 mph 95 % 0 in
07:42 59.4 °F 57.9 °F 30 in SSW 1 mph 4 mph 95 % 0 in
07:47 59.4 °F 57.9 °F 30 in SSW 2 mph 5 mph 95 % 0 in
07:52 59.5 °F 58.1 °F 30 in SSE 3 mph 5 mph 95 % 0 in
07:57 59.7 °F 58.3 °F 30 in Calm   5 mph 95 % 0 in
08:02 60.1 °F 58.6 °F 30 in SSW 2 mph 5 mph 95 % 0 in
08:12 61 °F 59.5 °F 30 in WSW 3 mph 5 mph 95 % 0 in
08:17 61.2 °F 59.7 °F 30 in WSW 5 mph 7 mph 95 % 0 in
08:22 61.3 °F 59.9 °F 30 in SW 2 mph 8 mph 95 % 0 in
08:27 61.5 °F 59.7 °F 30 in SW 1 mph 8 mph 94 % 0 in
08:37 61.7 °F 59.9 °F 30 in SSW 3 mph 7 mph 94 % 0 in
08:42 61.9 °F 60.1 °F 30 in SW 6 mph 7 mph 94 % 0 in
08:47 62.1 °F 60.3 °F 30 in SSW 2 mph 6 mph 94 % 0 in
08:57 62.4 °F 60.4 °F 30 in SW 4 mph 8 mph 93 % 0 in
09:02 62.6 °F 60.3 °F 30 in SSW 4 mph 8 mph 92 % 0 in
09:07 62.8 °F 60.4 °F 30 in SW 3 mph 8 mph 92 % 0 in
09:12 63 °F 60.3 °F 30 in SW 5 mph 8 mph 91 % 0 in
09:17 63.1 °F 60.4 °F 30 in SW 6 mph 8 mph 91 % 0 in
09:27 63.3 °F 60.3 °F 30 in SSW 7 mph 10 mph 90 % 0 in
09:32 63.3 °F 60.3 °F 30 in WSW 4 mph 10 mph 90 % 0 in
09:37 63.3 °F 60.3 °F 30 in SW 7 mph 12 mph 90 % 0 in
09:42 63.3 °F 60.3 °F 30 in WSW 2 mph 12 mph 90 % 0 in
09:47 63.3 °F 60.1 °F 30 in West 6 mph 10 mph 89 % 0 in
09:52 63.3 °F 60.3 °F 30 in WSW 5 mph 9 mph 90 % 0 in
09:57 63.7 °F 60.4 °F 30 in SW 4 mph 9 mph 89 % 0 in
10:02 64 °F 60.8 °F 30 in SSW 5 mph 9 mph 89 % 0 in
10:07 64.6 °F 61 °F 30 in SW 2 mph 12 mph 88 % 0 in
10:12 65.1 °F 60.4 °F 30 in SW 6 mph 12 mph 85 % 0 in
10:17 65.1 °F 60.4 °F 30 in SW 8 mph 12 mph 85 % 0 in
10:27 65.3 °F 60.3 °F 30 in West 2 mph 12 mph 84 % 0 in
10:32 65.3 °F 60.3 °F 30 in SW 1 mph 12 mph 84 % 0 in
10:37 65.3 °F 60.3 °F 30 in SW 5 mph 10 mph 84 % 0 in
10:42 65.3 °F 60.6 °F 30 in WSW 2 mph 10 mph 85 % 0 in
10:47 65.7 °F 61.3 °F 30 in WSW 3 mph 8 mph 86 % 0 in
10:52 65.7 °F 60.6 °F 30 in SSW 2 mph 11 mph 84 % 0 in
10:57 65.5 °F 60.3 °F 30 in West 4 mph 11 mph 83 % 0 in
11:02 65.7 °F 60.4 °F 30 in SW 5 mph 11 mph 83 % 0 in
11:12 66.4 °F 60.8 °F 30 in SW 7 mph 12 mph 82 % 0 in
11:17 66.7 °F 60.4 °F 30 in SW 7 mph 14 mph 80 % 0 in
11:22 66.6 °F 59.9 °F 30 in SSW 4 mph 14 mph 79 % 0 in
11:27 66.7 °F 61 °F 30 in SW 11 mph 14 mph 82 % 0 in
11:32 66.9 °F 61.2 °F 30 in WSW 3 mph 14 mph 82 % 0 in
11:37 66.7 °F 60.8 °F 30 in SW 9 mph 12 mph 81 % 0 in
11:42 66.7 °F 60.8 °F 30 in SSW 5 mph 17 mph 81 % 0 in
11:47 66.9 °F 60.6 °F 30 in WSW 5 mph 17 mph 80 % 0 in
11:57 67.3 °F 60.6 °F 30 in SSW 4 mph 16 mph 79 % 0 in
12:02 67.6 °F 60.3 °F 30 in SW 7 mph 16 mph 77 % 0 in
12:12 67.8 °F 59.5 °F 30 in SW 11 mph 15 mph 75 % 0 in
12:17 68.2 °F 60.6 °F 30 in WSW 15 mph 15 mph 77 % 0 in
12:22 68.7 °F 60.1 °F 30 in SW 13 mph 17 mph 74 % 0 in
12:27 68.4 °F 60.1 °F 30 in West 7 mph 17 mph 75 % 0 in
12:32 68.4 °F 60.4 °F 30 in SW 7 mph 17 mph 76 % 0 in
12:37 68.5 °F 61.3 °F 30 in WNW 4 mph 14 mph 78 % 0 in
12:42 68.4 °F 60.4 °F 30 in SW 4 mph 12 mph 76 % 0 in
12:47 68 °F 60.1 °F 30 in West 6 mph 12 mph 76 % 0 in
12:52 67.6 °F 59 °F 30 in West 4 mph 14 mph 74 % 0 in
12:57 67.6 °F 59.4 °F 30 in West 3 mph 14 mph 75 % 0 in
13:02 68.5 °F 59.5 °F 30.1 in WSW 11 mph 14 mph 73 % 0 in
13:07 68.2 °F 59.2 °F 30.1 in SW 4 mph 14 mph 73 % 0 in
13:12 68.7 °F 59.4 °F 30.1 in West 10 mph 14 mph 72 % 0 in
13:17 68.5 °F 59.5 °F 30.1 in WSW 9 mph 14 mph 73 % 0 in
13:22 68.5 °F 59.9 °F 30.1 in SW 9 mph 15 mph 74 % 0 in
13:27 68.5 °F 59.5 °F 30.1 in WSW 9 mph 15 mph 73 % 0 in
13:32 68.5 °F 59.5 °F 30.1 in WSW 10 mph 15 mph 73 % 0 in
13:37 68.5 °F 59.2 °F 30.1 in WSW 5 mph 14 mph 72 % 0 in
13:42 68.9 °F 59.2 °F 30.1 in WSW 6 mph 14 mph 71 % 0 in
13:47 69.4 °F 58.5 °F 30.1 in SW 8 mph 14 mph 68 % 0 in
13:52 70 °F 59 °F 30.1 in WSW 8 mph 14 mph 68 % 0 in
13:57 69.4 °F 58.8 °F 30 in WSW 3 mph 18 mph 69 % 0 in
14:02 69.6 °F 59.4 °F 30.1 in WSW 9 mph 18 mph 70 % 0 in
14:12 70 °F 59 °F 30.1 in West 7 mph 15 mph 68 % 0 in
14:17 69.4 °F 58.5 °F 30.1 in WSW 7 mph 15 mph 68 % 0 in
14:22 70 °F 59.7 °F 30.1 in West 7 mph 15 mph 70 % 0 in
14:27 70.3 °F 58.5 °F 30.1 in West 5 mph 13 mph 66 % 0 in
14:32 70 °F 58.1 °F 30.1 in West 9 mph 14 mph 66 % 0 in
14:37 70 °F 58.1 °F 30.1 in WNW 10 mph 14 mph 66 % 0 in
14:42 70.3 °F 58.1 °F 30.1 in SW 14 mph 14 mph 65 % 0 in
14:52 69.6 °F 56.8 °F 30.1 in WSW 7 mph 16 mph 64 % 0 in
14:57 70.2 °F 57.9 °F 30.1 in WNW 8 mph 16 mph 65 % 0 in
15:02 70.5 °F 57.7 °F 30.1 in West 10 mph 14 mph 64 % 0 in
15:07 70.7 °F 57.6 °F 30 in West 6 mph 13 mph 63 % 0 in
15:12 71.6 °F 57 °F 30.1 in West 11 mph 14 mph 60 % 0 in
15:17 71.4 °F 56.3 °F 30.1 in WSW 13 mph 16 mph 59 % 0 in
15:22 71.6 °F 56.1 °F 30.1 in WNW 8 mph 16 mph 58 % 0 in
15:27 71.2 °F 56.7 °F 30.1 in West 8 mph 16 mph 60 % 0 in
15:32 71.2 °F 56.7 °F 30.1 in SW 8 mph 14 mph 60 % 0 in
15:37 71.2 °F 55.8 °F 30.1 in SW 10 mph 17 mph 58 % 0 in
15:42 71.1 °F 55.6 °F 30.1 in WSW 7 mph 17 mph 58 % 0 in
15:47 71.1 °F 55.9 °F 30.1 in SW 8 mph 17 mph 59 % 0 in
15:52 71.4 °F 56.3 °F 30.1 in WSW 8 mph 16 mph 59 % 0 in
15:57 71.1 °F 55.9 °F 30.1 in WSW 10 mph 16 mph 59 % 0 in
16:02 71.1 °F 55.9 °F 30.1 in South 5 mph 16 mph 59 % 0 in
16:07 71.8 °F 57.6 °F 30.1 in West 8 mph 13 mph 61 % 0 in
16:12 71.4 °F 56.3 °F 30.1 in WNW 5 mph 16 mph 59 % 0 in
16:17 71.2 °F 56.1 °F 30.1 in West 7 mph 16 mph 59 % 0 in
16:22 71.1 °F 56.8 °F 30.1 in WSW 10 mph 16 mph 61 % 0 in
16:27 70.9 °F 57.2 °F 30.1 in WNW 4 mph 16 mph 62 % 0 in
16:32 71.2 °F 56.1 °F 30.1 in WNW 9 mph 14 mph 59 % 0 in
16:37 71.1 °F 56.5 °F 30.1 in West 6 mph 13 mph 60 % 0 in
16:42 71.1 °F 56.8 °F 30.1 in West 4 mph 11 mph 61 % 0 in
16:47 71.1 °F 56.5 °F 30.1 in WNW 8 mph 11 mph 60 % 0 in
16:52 71.1 °F 56.5 °F 30.1 in SW 10 mph 11 mph 60 % 0 in
16:57 70.5 °F 55.9 °F 30.1 in West 8 mph 13 mph 60 % 0 in
17:02 70.5 °F 56.5 °F 30.1 in West 5 mph 13 mph 61 % 0 in
17:07 70.7 °F 57 °F 30.1 in WSW 3 mph 13 mph 62 % 0 in
17:12 70.9 °F 57.2 °F 30.1 in West 4 mph 12 mph 62 % 0 in
17:22 70.9 °F 56.8 °F 30.1 in West 7 mph 11 mph 61 % 0 in
17:27 70.9 °F 56.3 °F 30.1 in West 5 mph 14 mph 60 % 0 in
17:32 71.4 °F 55.9 °F 30.1 in West 6 mph 14 mph 58 % 0 in
17:37 72.1 °F 57 °F 30.1 in SW 4 mph 14 mph 59 % 0 in
17:42 71.8 °F 56.7 °F 30.1 in West 8 mph 14 mph 59 % 0 in
17:47 72 °F 56.8 °F 30.1 in WSW 3 mph 14 mph 59 % 0 in
17:52 72.1 °F 56.5 °F 30.1 in West 4 mph 14 mph 58 % 0 in
17:57 72 °F 56.8 °F 30.1 in WNW 4 mph 10 mph 59 % 0 in
18:02 72.5 °F 57.4 °F 30.1 in WSW 5 mph 10 mph 59 % 0 in
18:07 72.7 °F 57 °F 30.1 in SW 5 mph 10 mph 58 % 0 in
18:12 72.1 °F 56.1 °F 30.1 in West 8 mph 11 mph 57 % 0 in
18:17 71.4 °F 56.8 °F 30.1 in WSW 5 mph 11 mph 60 % 0 in
18:22 71.2 °F 56.7 °F 30.1 in WSW 5 mph 11 mph 60 % 0 in
18:27 71.8 °F 57.2 °F 30.1 in West 3 mph 9 mph 60 % 0 in
18:32 71.2 °F 56.7 °F 30.1 in WSW 1 mph 9 mph 60 % 0 in
18:37 71.1 °F 57.4 °F 30.1 in WNW 4 mph 8 mph 62 % 0 in
18:42 71.8 °F 57.6 °F 30.1 in WNW 6 mph 8 mph 61 % 0 in
18:47 71.8 °F 55.2 °F 30.1 in WSW 8 mph 9 mph 56 % 0 in
18:52 71.8 °F 56.1 °F 30.1 in SW 5 mph 12 mph 58 % 0 in
18:57 72 °F 56.8 °F 30.1 in WNW 2 mph 12 mph 59 % 0 in
19:02 72 °F 57.4 °F 30.1 in SW 3 mph 10 mph 60 % 0 in
19:12 71.2 °F 56.7 °F 30.1 in WNW 3 mph 9 mph 60 % 0 in
19:17 71.1 °F 55.9 °F 30.1 in West 3 mph 8 mph 59 % 0 in
19:22 71.2 °F 55.8 °F 30.1 in WNW 5 mph 8 mph 58 % 0 in
19:27 71.2 °F 55.8 °F 30.1 in West 4 mph 8 mph 58 % 0 in
19:32 71.2 °F 55.8 °F 30.1 in SW 2 mph 8 mph 58 % 0 in
19:42 71.1 °F 55.6 °F 30.1 in NW 4 mph 7 mph 58 % 0 in
19:52 71.1 °F 56.8 °F 30.1 in West 2 mph 8 mph 61 % 0 in
20:02 71.2 °F 55.8 °F 30.1 in NW 3 mph 8 mph 58 % 0 in
20:07 70.9 °F 55.4 °F 30.1 in West 1 mph 7 mph 58 % 0 in
20:12 70.9 °F 56.3 °F 30.1 in WNW 1 mph 7 mph 60 % 0 in
20:17 70.5 °F 55.9 °F 30.1 in West 1 mph 7 mph 60 % 0 in
20:22 70.7 °F 56.1 °F 30.1 in Calm   4 mph 60 % 0 in
20:27 71.1 °F 55.9 °F 30.1 in WNW 1 mph 3 mph 59 % 0 in
20:32 71.4 °F 55.9 °F 30.1 in Calm   3 mph 58 % 0 in
20:37 71.6 °F 56.5 °F 30.1 in West 1 mph 3 mph 59 % 0 in
20:42 70.7 °F 56.1 °F 30.1 in Calm   3 mph 60 % 0 in
20:47 70 °F 56.3 °F 30.1 in Calm   2 mph 62 % 0 in
20:52 69.4 °F 55.9 °F 30.1 in Calm   2 mph 62 % 0 in
21:02 68.7 °F 55.6 °F 30.1 in Calm   2 mph 63 % 0 in
21:07 68.5 °F 55.4 °F 30.1 in NW 1 mph 3 mph 63 % 0 in
21:12 68.2 °F 55.6 °F 30.1 in NW 1 mph 3 mph 64 % 0 in
21:17 68 °F 55.8 °F 30.1 in NW 1 mph 3 mph 65 % 0 in
21:22 67.6 °F 55.4 °F 30.1 in Calm   2 mph 65 % 0 in
21:27 67.5 °F 56.1 °F 30.1 in Calm   1 mph 67 % 0 in
21:32 67.1 °F 56.1 °F 30.1 in NW 1 mph 1 mph 68 % 0 in
21:37 66.9 °F 55.9 °F 30.1 in WNW 1 mph 2 mph 68 % 0 in
21:42 66.7 °F 55.8 °F 30.1 in NNW 2 mph 2 mph 68 % 0 in
21:47 66.6 °F 55.6 °F 30.1 in Calm   2 mph 68 % 0 in
21:52 66.4 °F 55.9 °F 30.1 in Calm   2 mph 69 % 0 in
21:57 66 °F 55.6 °F 30.1 in NW 1 mph 2 mph 69 % 0 in
22:02 66 °F 55.6 °F 30.1 in Calm   2 mph 69 % 0 in
22:07 65.8 °F 55.4 °F 30.1 in Calm   2 mph 69 % 0 in
22:12 65.7 °F 54.9 °F 30.1 in WNW 1 mph 2 mph 68 % 0 in
22:17 65.7 °F 54.9 °F 30.1 in Calm   1 mph 68 % 0 in
22:22 65.5 °F 55 °F 30.1 in Calm   1 mph 69 % 0 in
22:32 65.1 °F 55 °F 30.1 in Calm   1 mph 70 % 0 in
22:42 64.6 °F 55 °F 30.1 in Calm     71 % 0 in
22:47 64.2 °F 55 °F 30.1 in Calm     72 % 0 in
22:52 64 °F 55.2 °F 30.1 in Calm     73 % 0 in
22:57 63.9 °F 55.8 °F 30.1 in Calm     75 % 0 in
23:02 63.3 °F 55.6 °F 30.1 in Calm     76 % 0 in
23:07 63 °F 55.6 °F 30.1 in Calm     77 % 0 in
23:12 62.6 °F 55.2 °F 30.1 in Calm     77 % 0 in
23:17 62.4 °F 55 °F 30.1 in Calm     77 % 0 in
23:22 62.4 °F 55.4 °F 30.1 in Calm     78 % 0 in
23:27 62.1 °F 54.7 °F 30.1 in Calm     77 % 0 in
23:32 61.7 °F 55.4 °F 30.1 in Calm     80 % 0 in
23:37 61.3 °F 55.4 °F 30.1 in Calm     81 % 0 in
23:47 61.2 °F 55.9 °F 30.1 in Calm     83 % 0 in
23:52 61.2 °F 55.6 °F 30.1 in Calm     82 % 0 in
23:57 61.3 °F 55.4 °F 30.1 in Calm     81 % 0 in
Meteo18
Compliments of Weather Underground - 4 mb

Script developed by  Jim McMurry - jmcmurry@mwt.net Adapted for the template by  Wim van der Kuil - Leuven-Template.eu

You find our weather info also at:

European Weather Network

Weather Underground

Equipment we use:

Weather-station
Davis Vue

Weather-program
Meteohub

Weather-server
Raspberry PI 2 B+

Provider
1 and 1

Davis Vue

Meteohub

Raspberry PI 2 B+

1 and 1